sensor_id;sensor_type;location;lat;lon;timestamp;pressure;altitude;pressure_sealevel;temperature
21210;BMP180;10762;42.206;25.326;2024-01-30T00:01:41;101680.00;;;4.10
21210;BMP180;10762;42.206;25.326;2024-01-30T00:04:07;101677.00;;;4.00
21210;BMP180;10762;42.206;25.326;2024-01-30T00:06:33;101680.00;;;4.00
21210;BMP180;10762;42.206;25.326;2024-01-30T00:08:59;101681.00;;;4.00
21210;BMP180;10762;42.206;25.326;2024-01-30T00:11:25;101677.00;;;3.90
21210;BMP180;10762;42.206;25.326;2024-01-30T00:13:52;101676.00;;;3.90
21210;BMP180;10762;42.206;25.326;2024-01-30T00:16:21;101687.00;;;3.90
21210;BMP180;10762;42.206;25.326;2024-01-30T00:18:48;101686.00;;;3.90
21210;BMP180;10762;42.206;25.326;2024-01-30T00:21:14;101677.00;;;3.90
21210;BMP180;10762;42.206;25.326;2024-01-30T00:23:40;101679.00;;;3.90
21210;BMP180;10762;42.206;25.326;2024-01-30T00:26:06;101682.00;;;3.90
21210;BMP180;10762;42.206;25.326;2024-01-30T00:28:33;101676.00;;;3.90
21210;BMP180;10762;42.206;25.326;2024-01-30T00:30:59;101673.00;;;3.90
21210;BMP180;10762;42.206;25.326;2024-01-30T00:33:25;101670.00;;;3.90
21210;BMP180;10762;42.206;25.326;2024-01-30T00:35:51;101679.00;;;3.80
21210;BMP180;10762;42.206;25.326;2024-01-30T00:38:17;101684.00;;;3.80
21210;BMP180;10762;42.206;25.326;2024-01-30T00:40:43;101684.00;;;3.80
21210;BMP180;10762;42.206;25.326;2024-01-30T00:43:09;101682.00;;;3.80
21210;BMP180;10762;42.206;25.326;2024-01-30T00:45:35;101695.00;;;3.80
21210;BMP180;10762;42.206;25.326;2024-01-30T00:48:02;101694.00;;;3.80
21210;BMP180;10762;42.206;25.326;2024-01-30T00:50:28;101700.00;;;3.70
21210;BMP180;10762;42.206;25.326;2024-01-30T00:52:54;101700.00;;;3.60
21210;BMP180;10762;42.206;25.326;2024-01-30T00:55:20;101701.00;;;3.60
21210;BMP180;10762;42.206;25.326;2024-01-30T00:57:46;101703.00;;;3.50
21210;BMP180;10762;42.206;25.326;2024-01-30T01:00:13;101704.00;;;3.50
21210;BMP180;10762;42.206;25.326;2024-01-30T01:02:41;101692.00;;;3.40
21210;BMP180;10762;42.206;25.326;2024-01-30T01:05:08;101708.00;;;3.40
21210;BMP180;10762;42.206;25.326;2024-01-30T01:07:34;101706.00;;;3.40
21210;BMP180;10762;42.206;25.326;2024-01-30T01:10:01;101692.00;;;3.40
21210;BMP180;10762;42.206;25.326;2024-01-30T01:12:28;101693.00;;;3.40
21210;BMP180;10762;42.206;25.326;2024-01-30T01:14:54;101704.00;;;3.40
21210;BMP180;10762;42.206;25.326;2024-01-30T01:17:20;101696.00;;;3.40
21210;BMP180;10762;42.206;25.326;2024-01-30T01:19:46;101686.00;;;3.40
21210;BMP180;10762;42.206;25.326;2024-01-30T01:22:12;101686.00;;;3.40
21210;BMP180;10762;42.206;25.326;2024-01-30T01:24:38;101684.00;;;3.40
21210;BMP180;10762;42.206;25.326;2024-01-30T01:27:04;101687.00;;;3.50
21210;BMP180;10762;42.206;25.326;2024-01-30T01:29:31;101675.00;;;3.50
21210;BMP180;10762;42.206;25.326;2024-01-30T01:31:58;101680.00;;;3.60
21210;BMP180;10762;42.206;25.326;2024-01-30T01:34:24;101674.00;;;3.60
21210;BMP180;10762;42.206;25.326;2024-01-30T01:36:50;101676.00;;;3.60
21210;BMP180;10762;42.206;25.326;2024-01-30T01:39:17;101667.00;;;3.70
21210;BMP180;10762;42.206;25.326;2024-01-30T01:41:43;101665.00;;;3.70
21210;BMP180;10762;42.206;25.326;2024-01-30T01:44:09;101666.00;;;3.80
21210;BMP180;10762;42.206;25.326;2024-01-30T01:46:35;101668.00;;;3.80
21210;BMP180;10762;42.206;25.326;2024-01-30T01:49:03;101664.00;;;3.80
21210;BMP180;10762;42.206;25.326;2024-01-30T01:51:31;101657.00;;;3.90
21210;BMP180;10762;42.206;25.326;2024-01-30T01:53:57;101666.00;;;3.80
21210;BMP180;10762;42.206;25.326;2024-01-30T01:56:24;101662.00;;;3.80
21210;BMP180;10762;42.206;25.326;2024-01-30T01:58:51;101657.00;;;3.70
21210;BMP180;10762;42.206;25.326;2024-01-30T02:01:18;101657.00;;;3.70
21210;BMP180;10762;42.206;25.326;2024-01-30T02:03:45;101646.00;;;3.70
21210;BMP180;10762;42.206;25.326;2024-01-30T02:06:12;101644.00;;;3.60
21210;BMP180;10762;42.206;25.326;2024-01-30T02:08:39;101647.00;;;3.60
21210;BMP180;10762;42.206;25.326;2024-01-30T02:11:05;101655.00;;;3.60
21210;BMP180;10762;42.206;25.326;2024-01-30T02:13:31;101662.00;;;3.60
21210;BMP180;10762;42.206;25.326;2024-01-30T02:15:57;101641.00;;;3.60
21210;BMP180;10762;42.206;25.326;2024-01-30T02:18:23;101645.00;;;3.70
21210;BMP180;10762;42.206;25.326;2024-01-30T02:20:50;101639.00;;;3.70
21210;BMP180;10762;42.206;25.326;2024-01-30T02:23:19;101640.00;;;3.90
21210;BMP180;10762;42.206;25.326;2024-01-30T02:25:45;101642.00;;;4.00
21210;BMP180;10762;42.206;25.326;2024-01-30T02:28:12;101631.00;;;4.20
21210;BMP180;10762;42.206;25.326;2024-01-30T02:30:47;101639.00;;;4.40
21210;BMP180;10762;42.206;25.326;2024-01-30T02:33:13;101632.00;;;4.60
21210;BMP180;10762;42.206;25.326;2024-01-30T02:35:39;101648.00;;;4.70
21210;BMP180;10762;42.206;25.326;2024-01-30T02:38:08;101634.00;;;4.90
21210;BMP180;10762;42.206;25.326;2024-01-30T02:40:34;101637.00;;;5.10
21210;BMP180;10762;42.206;25.326;2024-01-30T02:43:01;101648.00;;;5.40
21210;BMP180;10762;42.206;25.326;2024-01-30T02:45:28;101648.00;;;5.50
21210;BMP180;10762;42.206;25.326;2024-01-30T02:47:54;101639.00;;;5.60
21210;BMP180;10762;42.206;25.326;2024-01-30T02:50:21;101639.00;;;5.60
21210;BMP180;10762;42.206;25.326;2024-01-30T02:52:47;101641.00;;;5.60
21210;BMP180;10762;42.206;25.326;2024-01-30T02:55:13;101634.00;;;5.60
21210;BMP180;10762;42.206;25.326;2024-01-30T02:57:39;101641.00;;;5.60
21210;BMP180;10762;42.206;25.326;2024-01-30T03:00:05;101646.00;;;5.60
21210;BMP180;10762;42.206;25.326;2024-01-30T03:02:32;101637.00;;;5.60
21210;BMP180;10762;42.206;25.326;2024-01-30T03:04:59;101633.00;;;5.60
21210;BMP180;10762;42.206;25.326;2024-01-30T03:07:25;101632.00;;;5.60
21210;BMP180;10762;42.206;25.326;2024-01-30T03:09:51;101636.00;;;5.70
21210;BMP180;10762;42.206;25.326;2024-01-30T03:12:18;101626.00;;;5.70
21210;BMP180;10762;42.206;25.326;2024-01-30T03:14:44;101623.00;;;5.80
21210;BMP180;10762;42.206;25.326;2024-01-30T03:17:10;101624.00;;;5.80
21210;BMP180;10762;42.206;25.326;2024-01-30T03:19:36;101622.00;;;5.90
21210;BMP180;10762;42.206;25.326;2024-01-30T03:22:02;101634.00;;;6.00
21210;BMP180;10762;42.206;25.326;2024-01-30T03:24:28;101622.00;;;6.00
21210;BMP180;10762;42.206;25.326;2024-01-30T03:26:55;101632.00;;;6.00
21210;BMP180;10762;42.206;25.326;2024-01-30T03:29:21;101635.00;;;6.00
21210;BMP180;10762;42.206;25.326;2024-01-30T03:31:47;101630.00;;;5.90
21210;BMP180;10762;42.206;25.326;2024-01-30T03:34:13;101650.00;;;5.90
21210;BMP180;10762;42.206;25.326;2024-01-30T03:36:39;101630.00;;;5.90
21210;BMP180;10762;42.206;25.326;2024-01-30T03:39:05;101630.00;;;5.90
21210;BMP180;10762;42.206;25.326;2024-01-30T03:41:32;101630.00;;;5.90
21210;BMP180;10762;42.206;25.326;2024-01-30T03:43:58;101625.00;;;5.90
21210;BMP180;10762;42.206;25.326;2024-01-30T03:46:25;101626.00;;;5.90
21210;BMP180;10762;42.206;25.326;2024-01-30T03:48:51;101626.00;;;5.90
21210;BMP180;10762;42.206;25.326;2024-01-30T03:51:17;101626.00;;;5.90
21210;BMP180;10762;42.206;25.326;2024-01-30T03:53:43;101630.00;;;6.00
21210;BMP180;10762;42.206;25.326;2024-01-30T03:56:09;101621.00;;;6.00
21210;BMP180;10762;42.206;25.326;2024-01-30T03:58:35;101617.00;;;6.00
21210;BMP180;10762;42.206;25.326;2024-01-30T04:01:01;101615.00;;;6.00
21210;BMP180;10762;42.206;25.326;2024-01-30T04:03:27;101624.00;;;6.00
21210;BMP180;10762;42.206;25.326;2024-01-30T04:05:54;101625.00;;;6.00
21210;BMP180;10762;42.206;25.326;2024-01-30T04:08:20;101628.00;;;6.00
21210;BMP180;10762;42.206;25.326;2024-01-30T04:10:46;101636.00;;;6.00
21210;BMP180;10762;42.206;25.326;2024-01-30T04:13:13;101631.00;;;5.90
21210;BMP180;10762;42.206;25.326;2024-01-30T04:15:39;101623.00;;;5.90
21210;BMP180;10762;42.206;25.326;2024-01-30T04:18:05;101628.00;;;5.90
21210;BMP180;10762;42.206;25.326;2024-01-30T04:20:31;101621.00;;;6.00
21210;BMP180;10762;42.206;25.326;2024-01-30T04:22:57;101628.00;;;6.00
21210;BMP180;10762;42.206;25.326;2024-01-30T04:25:23;101630.00;;;6.00
21210;BMP180;10762;42.206;25.326;2024-01-30T04:27:49;101628.00;;;6.00
21210;BMP180;10762;42.206;25.326;2024-01-30T04:30:16;101607.00;;;6.10
21210;BMP180;10762;42.206;25.326;2024-01-30T04:32:43;101620.00;;;6.10
21210;BMP180;10762;42.206;25.326;2024-01-30T04:35:09;101637.00;;;6.10
21210;BMP180;10762;42.206;25.326;2024-01-30T04:37:35;101624.00;;;6.10
21210;BMP180;10762;42.206;25.326;2024-01-30T04:40:01;101631.00;;;6.20
21210;BMP180;10762;42.206;25.326;2024-01-30T04:42:27;101637.00;;;6.20
21210;BMP180;10762;42.206;25.326;2024-01-30T04:44:53;101637.00;;;6.30
21210;BMP180;10762;42.206;25.326;2024-01-30T04:47:19;101636.00;;;6.40
21210;BMP180;10762;42.206;25.326;2024-01-30T04:49:45;101634.00;;;6.50
21210;BMP180;10762;42.206;25.326;2024-01-30T04:52:11;101630.00;;;6.70
21210;BMP180;10762;42.206;25.326;2024-01-30T04:54:37;101640.00;;;6.80
21210;BMP180;10762;42.206;25.326;2024-01-30T04:57:04;101637.00;;;6.80
21210;BMP180;10762;42.206;25.326;2024-01-30T04:59:31;101641.00;;;6.90
21210;BMP180;10762;42.206;25.326;2024-01-30T05:01:57;101643.00;;;6.90
21210;BMP180;10762;42.206;25.326;2024-01-30T05:04:23;101643.00;;;7.00
21210;BMP180;10762;42.206;25.326;2024-01-30T05:06:49;101646.00;;;7.00
21210;BMP180;10762;42.206;25.326;2024-01-30T05:09:15;101650.00;;;7.00
21210;BMP180;10762;42.206;25.326;2024-01-30T05:11:41;101651.00;;;7.00
21210;BMP180;10762;42.206;25.326;2024-01-30T05:14:07;101647.00;;;7.00
21210;BMP180;10762;42.206;25.326;2024-01-30T05:16:37;101658.00;;;7.00
21210;BMP180;10762;42.206;25.326;2024-01-30T05:19:03;101653.00;;;7.00
21210;BMP180;10762;42.206;25.326;2024-01-30T05:21:29;101664.00;;;7.00
21210;BMP180;10762;42.206;25.326;2024-01-30T05:23:56;101656.00;;;7.10
21210;BMP180;10762;42.206;25.326;2024-01-30T05:26:22;101663.00;;;7.10
21210;BMP180;10762;42.206;25.326;2024-01-30T05:28:48;101658.00;;;7.10
21210;BMP180;10762;42.206;25.326;2024-01-30T05:31:14;101654.00;;;7.10
21210;BMP180;10762;42.206;25.326;2024-01-30T05:33:40;101665.00;;;7.10
21210;BMP180;10762;42.206;25.326;2024-01-30T05:36:07;101665.00;;;7.10
21210;BMP180;10762;42.206;25.326;2024-01-30T05:38:33;101666.00;;;7.20
21210;BMP180;10762;42.206;25.326;2024-01-30T05:40:59;101668.00;;;7.20
21210;BMP180;10762;42.206;25.326;2024-01-30T05:43:25;101676.00;;;7.20
21210;BMP180;10762;42.206;25.326;2024-01-30T05:45:51;101675.00;;;7.20
21210;BMP180;10762;42.206;25.326;2024-01-30T05:48:18;101674.00;;;7.30
21210;BMP180;10762;42.206;25.326;2024-01-30T05:50:44;101665.00;;;7.30
21210;BMP180;10762;42.206;25.326;2024-01-30T05:53:11;101664.00;;;7.30
21210;BMP180;10762;42.206;25.326;2024-01-30T05:55:37;101666.00;;;7.30
21210;BMP180;10762;42.206;25.326;2024-01-30T05:58:03;101674.00;;;7.30
21210;BMP180;10762;42.206;25.326;2024-01-30T06:00:29;101675.00;;;7.30
21210;BMP180;10762;42.206;25.326;2024-01-30T06:02:55;101670.00;;;7.30
21210;BMP180;10762;42.206;25.326;2024-01-30T06:05:21;101673.00;;;7.30
21210;BMP180;10762;42.206;25.326;2024-01-30T06:07:48;101665.00;;;7.30
21210;BMP180;10762;42.206;25.326;2024-01-30T06:10:14;101664.00;;;7.30
21210;BMP180;10762;42.206;25.326;2024-01-30T06:12:40;101645.00;;;7.40
21210;BMP180;10762;42.206;25.326;2024-01-30T06:15:06;101648.00;;;7.40
21210;BMP180;10762;42.206;25.326;2024-01-30T06:17:32;101653.00;;;7.40
21210;BMP180;10762;42.206;25.326;2024-01-30T06:19:58;101650.00;;;7.40
21210;BMP180;10762;42.206;25.326;2024-01-30T06:22:25;101648.00;;;7.40
21210;BMP180;10762;42.206;25.326;2024-01-30T06:24:51;101654.00;;;7.40
21210;BMP180;10762;42.206;25.326;2024-01-30T06:27:17;101659.00;;;7.40
21210;BMP180;10762;42.206;25.326;2024-01-30T06:29:46;101649.00;;;7.40
21210;BMP180;10762;42.206;25.326;2024-01-30T06:32:12;101647.00;;;7.40
21210;BMP180;10762;42.206;25.326;2024-01-30T06:34:38;101644.00;;;7.50
21210;BMP180;10762;42.206;25.326;2024-01-30T06:37:05;101648.00;;;7.50
21210;BMP180;10762;42.206;25.326;2024-01-30T06:39:32;101653.00;;;7.50
21210;BMP180;10762;42.206;25.326;2024-01-30T06:41:58;101654.00;;;7.50
21210;BMP180;10762;42.206;25.326;2024-01-30T06:44:24;101649.00;;;7.50
21210;BMP180;10762;42.206;25.326;2024-01-30T06:46:50;101659.00;;;7.60
21210;BMP180;10762;42.206;25.326;2024-01-30T06:49:16;101658.00;;;7.60
21210;BMP180;10762;42.206;25.326;2024-01-30T06:51:42;101655.00;;;7.60
21210;BMP180;10762;42.206;25.326;2024-01-30T06:54:08;101659.00;;;7.60
21210;BMP180;10762;42.206;25.326;2024-01-30T06:56:34;101663.00;;;7.60
21210;BMP180;10762;42.206;25.326;2024-01-30T06:59:01;101656.00;;;7.70
21210;BMP180;10762;42.206;25.326;2024-01-30T07:01:28;101665.00;;;7.70
21210;BMP180;10762;42.206;25.326;2024-01-30T07:03:54;101660.00;;;7.70
21210;BMP180;10762;42.206;25.326;2024-01-30T07:06:21;101652.00;;;7.80
21210;BMP180;10762;42.206;25.326;2024-01-30T07:08:48;101647.00;;;7.80
21210;BMP180;10762;42.206;25.326;2024-01-30T07:11:18;101649.00;;;7.80
21210;BMP180;10762;42.206;25.326;2024-01-30T07:13:44;101654.00;;;7.80
21210;BMP180;10762;42.206;25.326;2024-01-30T07:16:10;101646.00;;;7.80
21210;BMP180;10762;42.206;25.326;2024-01-30T07:18:36;101646.00;;;7.90
21210;BMP180;10762;42.206;25.326;2024-01-30T07:21:02;101645.00;;;7.90
21210;BMP180;10762;42.206;25.326;2024-01-30T07:23:28;101651.00;;;7.90
21210;BMP180;10762;42.206;25.326;2024-01-30T07:25:55;101643.00;;;7.90
21210;BMP180;10762;42.206;25.326;2024-01-30T07:28:21;101644.00;;;7.90
21210;BMP180;10762;42.206;25.326;2024-01-30T07:30:48;101646.00;;;7.80
21210;BMP180;10762;42.206;25.326;2024-01-30T07:33:14;101653.00;;;7.90
21210;BMP180;10762;42.206;25.326;2024-01-30T07:35:40;101646.00;;;7.90
21210;BMP180;10762;42.206;25.326;2024-01-30T07:38:06;101638.00;;;7.90
21210;BMP180;10762;42.206;25.326;2024-01-30T07:40:32;101650.00;;;7.90
21210;BMP180;10762;42.206;25.326;2024-01-30T07:42:59;101651.00;;;7.90
21210;BMP180;10762;42.206;25.326;2024-01-30T07:45:25;101655.00;;;7.90
21210;BMP180;10762;42.206;25.326;2024-01-30T07:47:53;101654.00;;;7.90
21210;BMP180;10762;42.206;25.326;2024-01-30T07:50:19;101652.00;;;7.90
21210;BMP180;10762;42.206;25.326;2024-01-30T07:52:45;101661.00;;;8.00
21210;BMP180;10762;42.206;25.326;2024-01-30T07:55:11;101654.00;;;8.00
21210;BMP180;10762;42.206;25.326;2024-01-30T07:57:38;101654.00;;;8.00
21210;BMP180;10762;42.206;25.326;2024-01-30T08:00:05;101655.00;;;8.00
21210;BMP180;10762;42.206;25.326;2024-01-30T08:02:33;101648.00;;;8.00
21210;BMP180;10762;42.206;25.326;2024-01-30T08:04:59;101650.00;;;8.10
21210;BMP180;10762;42.206;25.326;2024-01-30T08:07:25;101656.00;;;8.10
21210;BMP180;10762;42.206;25.326;2024-01-30T08:09:51;101665.00;;;8.10
21210;BMP180;10762;42.206;25.326;2024-01-30T08:12:17;101656.00;;;8.10
21210;BMP180;10762;42.206;25.326;2024-01-30T08:14:43;101659.00;;;8.20
21210;BMP180;10762;42.206;25.326;2024-01-30T08:17:09;101661.00;;;8.20
21210;BMP180;10762;42.206;25.326;2024-01-30T08:19:35;101659.00;;;8.20
21210;BMP180;10762;42.206;25.326;2024-01-30T08:22:01;101649.00;;;8.20
21210;BMP180;10762;42.206;25.326;2024-01-30T08:24:27;101663.00;;;8.30
21210;BMP180;10762;42.206;25.326;2024-01-30T08:26:53;101670.00;;;8.30
21210;BMP180;10762;42.206;25.326;2024-01-30T08:29:19;101671.00;;;8.30
21210;BMP180;10762;42.206;25.326;2024-01-30T08:31:45;101676.00;;;8.30
21210;BMP180;10762;42.206;25.326;2024-01-30T08:34:12;101672.00;;;8.40
21210;BMP180;10762;42.206;25.326;2024-01-30T08:36:38;101684.00;;;8.40
21210;BMP180;10762;42.206;25.326;2024-01-30T08:39:04;101682.00;;;8.40
21210;BMP180;10762;42.206;25.326;2024-01-30T08:41:31;101683.00;;;8.40
21210;BMP180;10762;42.206;25.326;2024-01-30T08:43:57;101691.00;;;8.50
21210;BMP180;10762;42.206;25.326;2024-01-30T08:46:23;101690.00;;;8.50
21210;BMP180;10762;42.206;25.326;2024-01-30T08:48:49;101690.00;;;8.50
21210;BMP180;10762;42.206;25.326;2024-01-30T08:51:15;101696.00;;;8.60
21210;BMP180;10762;42.206;25.326;2024-01-30T08:53:41;101692.00;;;8.60
21210;BMP180;10762;42.206;25.326;2024-01-30T08:56:07;101701.00;;;8.60
21210;BMP180;10762;42.206;25.326;2024-01-30T08:58:33;101698.00;;;8.60
21210;BMP180;10762;42.206;25.326;2024-01-30T09:00:59;101700.00;;;8.70
21210;BMP180;10762;42.206;25.326;2024-01-30T09:03:25;101711.00;;;8.70
21210;BMP180;10762;42.206;25.326;2024-01-30T09:05:52;101705.00;;;8.70
21210;BMP180;10762;42.206;25.326;2024-01-30T09:08:18;101701.00;;;8.70
21210;BMP180;10762;42.206;25.326;2024-01-30T09:10:44;101701.00;;;8.70
21210;BMP180;10762;42.206;25.326;2024-01-30T09:13:10;101698.00;;;8.80
21210;BMP180;10762;42.206;25.326;2024-01-30T09:15:36;101703.00;;;8.80
21210;BMP180;10762;42.206;25.326;2024-01-30T09:18:02;101696.00;;;8.80
21210;BMP180;10762;42.206;25.326;2024-01-30T09:20:28;101698.00;;;8.90
21210;BMP180;10762;42.206;25.326;2024-01-30T09:22:54;101700.00;;;8.90
21210;BMP180;10762;42.206;25.326;2024-01-30T09:25:20;101690.00;;;8.90
21210;BMP180;10762;42.206;25.326;2024-01-30T09:27:46;101698.00;;;9.00
21210;BMP180;10762;42.206;25.326;2024-01-30T09:30:13;101684.00;;;9.00
21210;BMP180;10762;42.206;25.326;2024-01-30T09:32:39;101686.00;;;9.10
21210;BMP180;10762;42.206;25.326;2024-01-30T09:35:05;101684.00;;;9.10
21210;BMP180;10762;42.206;25.326;2024-01-30T09:37:32;101669.00;;;9.10
21210;BMP180;10762;42.206;25.326;2024-01-30T09:39:58;101668.00;;;9.10
21210;BMP180;10762;42.206;25.326;2024-01-30T09:44:50;101648.00;;;9.20
21210;BMP180;10762;42.206;25.326;2024-01-30T09:47:16;101656.00;;;9.20
21210;BMP180;10762;42.206;25.326;2024-01-30T09:49:43;101648.00;;;9.20
21210;BMP180;10762;42.206;25.326;2024-01-30T09:52:10;101662.00;;;9.20
21210;BMP180;10762;42.206;25.326;2024-01-30T09:54:37;101650.00;;;9.20
21210;BMP180;10762;42.206;25.326;2024-01-30T09:57:04;101641.00;;;9.30
21210;BMP180;10762;42.206;25.326;2024-01-30T09:59:30;101636.00;;;9.30
21210;BMP180;10762;42.206;25.326;2024-01-30T10:01:57;101636.00;;;9.30
21210;BMP180;10762;42.206;25.326;2024-01-30T10:04:23;101632.00;;;9.30
21210;BMP180;10762;42.206;25.326;2024-01-30T10:06:49;101619.00;;;9.40
21210;BMP180;10762;42.206;25.326;2024-01-30T10:09:16;101625.00;;;9.40
21210;BMP180;10762;42.206;25.326;2024-01-30T10:11:42;101625.00;;;9.40
21210;BMP180;10762;42.206;25.326;2024-01-30T10:14:09;101617.00;;;9.40
21210;BMP180;10762;42.206;25.326;2024-01-30T10:16:35;101623.00;;;9.40
21210;BMP180;10762;42.206;25.326;2024-01-30T10:19:01;101612.00;;;9.50
21210;BMP180;10762;42.206;25.326;2024-01-30T10:21:29;101613.00;;;9.50
21210;BMP180;10762;42.206;25.326;2024-01-30T10:23:55;101617.00;;;9.50
21210;BMP180;10762;42.206;25.326;2024-01-30T10:26:21;101623.00;;;9.40
21210;BMP180;10762;42.206;25.326;2024-01-30T10:28:48;101625.00;;;9.40
21210;BMP180;10762;42.206;25.326;2024-01-30T10:31:17;101628.00;;;9.30
21210;BMP180;10762;42.206;25.326;2024-01-30T10:33:44;101614.00;;;9.30
21210;BMP180;10762;42.206;25.326;2024-01-30T10:36:12;101613.00;;;9.40
21210;BMP180;10762;42.206;25.326;2024-01-30T10:38:39;101605.00;;;9.50
21210;BMP180;10762;42.206;25.326;2024-01-30T10:41:06;101606.00;;;9.50
21210;BMP180;10762;42.206;25.326;2024-01-30T10:43:39;101606.00;;;9.50
21210;BMP180;10762;42.206;25.326;2024-01-30T10:48:35;101622.00;;;9.60
21210;BMP180;10762;42.206;25.326;2024-01-30T10:51:02;101603.00;;;9.60
21210;BMP180;10762;42.206;25.326;2024-01-30T10:53:30;101622.00;;;9.60
21210;BMP180;10762;42.206;25.326;2024-01-30T10:55:57;101612.00;;;9.60
21210;BMP180;10762;42.206;25.326;2024-01-30T10:58:24;101609.00;;;9.60
21210;BMP180;10762;42.206;25.326;2024-01-30T11:00:51;101609.00;;;9.60
21210;BMP180;10762;42.206;25.326;2024-01-30T11:03:18;101597.00;;;9.60
21210;BMP180;10762;42.206;25.326;2024-01-30T11:05:48;101592.00;;;9.60
21210;BMP180;10762;42.206;25.326;2024-01-30T11:08:14;101593.00;;;9.50
21210;BMP180;10762;42.206;25.326;2024-01-30T11:10:44;101593.00;;;9.50
21210;BMP180;10762;42.206;25.326;2024-01-30T11:13:12;101600.00;;;9.50
21210;BMP180;10762;42.206;25.326;2024-01-30T11:15:39;101601.00;;;9.50
21210;BMP180;10762;42.206;25.326;2024-01-30T11:18:06;101601.00;;;9.50
21210;BMP180;10762;42.206;25.326;2024-01-30T11:20:32;101590.00;;;9.50
21210;BMP180;10762;42.206;25.326;2024-01-30T11:22:58;101594.00;;;9.50
21210;BMP180;10762;42.206;25.326;2024-01-30T11:25:25;101591.00;;;9.40
21210;BMP180;10762;42.206;25.326;2024-01-30T11:27:52;101600.00;;;9.40
21210;BMP180;10762;42.206;25.326;2024-01-30T11:33:10;101600.00;;;9.40
21210;BMP180;10762;42.206;25.326;2024-01-30T11:38:03;101589.00;;;9.30
21210;BMP180;10762;42.206;25.326;2024-01-30T11:40:30;101591.00;;;9.40
21210;BMP180;10762;42.206;25.326;2024-01-30T11:42:57;101584.00;;;9.40
21210;BMP180;10762;42.206;25.326;2024-01-30T11:45:28;101590.00;;;9.50
21210;BMP180;10762;42.206;25.326;2024-01-30T11:47:55;101581.00;;;9.50
21210;BMP180;10762;42.206;25.326;2024-01-30T11:50:21;101579.00;;;9.50
21210;BMP180;10762;42.206;25.326;2024-01-30T11:52:47;101570.00;;;9.60
21210;BMP180;10762;42.206;25.326;2024-01-30T11:55:14;101563.00;;;9.70
21210;BMP180;10762;42.206;25.326;2024-01-30T11:57:40;101570.00;;;9.70
21210;BMP180;10762;42.206;25.326;2024-01-30T12:00:13;101574.00;;;9.70
21210;BMP180;10762;42.206;25.326;2024-01-30T12:02:42;101557.00;;;9.70
21210;BMP180;10762;42.206;25.326;2024-01-30T12:05:09;101556.00;;;9.70
21210;BMP180;10762;42.206;25.326;2024-01-30T12:07:36;101552.00;;;9.80
21210;BMP180;10762;42.206;25.326;2024-01-30T12:10:02;101556.00;;;9.70
21210;BMP180;10762;42.206;25.326;2024-01-30T12:12:28;101551.00;;;9.80
21210;BMP180;10762;42.206;25.326;2024-01-30T12:14:55;101549.00;;;9.80
21210;BMP180;10762;42.206;25.326;2024-01-30T12:20:03;101543.00;;;9.80
21210;BMP180;10762;42.206;25.326;2024-01-30T12:22:30;101538.00;;;9.80
21210;BMP180;10762;42.206;25.326;2024-01-30T12:24:56;101547.00;;;9.80
21210;BMP180;10762;42.206;25.326;2024-01-30T12:27:23;101536.00;;;9.90
21210;BMP180;10762;42.206;25.326;2024-01-30T12:29:55;101536.00;;;9.90
21210;BMP180;10762;42.206;25.326;2024-01-30T12:32:22;101535.00;;;9.90
21210;BMP180;10762;42.206;25.326;2024-01-30T12:34:48;101532.00;;;9.90
21210;BMP180;10762;42.206;25.326;2024-01-30T12:37:14;101529.00;;;9.90
21210;BMP180;10762;42.206;25.326;2024-01-30T12:39:45;101540.00;;;9.90
21210;BMP180;10762;42.206;25.326;2024-01-30T12:42:11;101535.00;;;9.80
21210;BMP180;10762;42.206;25.326;2024-01-30T12:44:37;101541.00;;;9.70
21210;BMP180;10762;42.206;25.326;2024-01-30T12:47:03;101540.00;;;9.70
21210;BMP180;10762;42.206;25.326;2024-01-30T12:49:29;101546.00;;;9.80
21210;BMP180;10762;42.206;25.326;2024-01-30T12:51:56;101533.00;;;9.70
21210;BMP180;10762;42.206;25.326;2024-01-30T12:54:22;101529.00;;;9.80
21210;BMP180;10762;42.206;25.326;2024-01-30T12:56:48;101523.00;;;9.80
21210;BMP180;10762;42.206;25.326;2024-01-30T12:59:15;101500.00;;;9.90
21210;BMP180;10762;42.206;25.326;2024-01-30T13:01:41;101506.00;;;10.00
21210;BMP180;10762;42.206;25.326;2024-01-30T13:04:08;101504.00;;;10.00
21210;BMP180;10762;42.206;25.326;2024-01-30T13:06:34;101512.00;;;10.10
21210;BMP180;10762;42.206;25.326;2024-01-30T13:09:00;101502.00;;;9.90
21210;BMP180;10762;42.206;25.326;2024-01-30T13:11:26;101505.00;;;9.80
21210;BMP180;10762;42.206;25.326;2024-01-30T13:13:52;101520.00;;;9.70
21210;BMP180;10762;42.206;25.326;2024-01-30T13:16:18;101511.00;;;9.70
21210;BMP180;10762;42.206;25.326;2024-01-30T13:18:44;101513.00;;;9.70
21210;BMP180;10762;42.206;25.326;2024-01-30T13:21:10;101515.00;;;9.60
21210;BMP180;10762;42.206;25.326;2024-01-30T13:23:36;101512.00;;;9.60
21210;BMP180;10762;42.206;25.326;2024-01-30T13:26:02;101511.00;;;9.60
21210;BMP180;10762;42.206;25.326;2024-01-30T13:28:29;101509.00;;;9.60
21210;BMP180;10762;42.206;25.326;2024-01-30T13:30:55;101511.00;;;9.70
21210;BMP180;10762;42.206;25.326;2024-01-30T13:33:21;101505.00;;;9.70
21210;BMP180;10762;42.206;25.326;2024-01-30T13:35:47;101508.00;;;9.70
21210;BMP180;10762;42.206;25.326;2024-01-30T13:38:14;101509.00;;;9.70
21210;BMP180;10762;42.206;25.326;2024-01-30T13:40:41;101522.00;;;9.70
21210;BMP180;10762;42.206;25.326;2024-01-30T13:43:07;101513.00;;;9.70
21210;BMP180;10762;42.206;25.326;2024-01-30T13:45:33;101511.00;;;9.60
21210;BMP180;10762;42.206;25.326;2024-01-30T13:47:59;101515.00;;;9.70
21210;BMP180;10762;42.206;25.326;2024-01-30T13:50:25;101514.00;;;9.70
21210;BMP180;10762;42.206;25.326;2024-01-30T13:52:52;101498.00;;;9.60
21210;BMP180;10762;42.206;25.326;2024-01-30T13:55:18;101506.00;;;9.60
21210;BMP180;10762;42.206;25.326;2024-01-30T13:57:44;101500.00;;;9.60
21210;BMP180;10762;42.206;25.326;2024-01-30T14:00:10;101507.00;;;9.60
21210;BMP180;10762;42.206;25.326;2024-01-30T14:02:37;101510.00;;;9.60
21210;BMP180;10762;42.206;25.326;2024-01-30T14:05:04;101513.00;;;9.60